createdAt,value
2022-08-08T00:00:52.255Z,0.93
2022-08-08T00:03:19.936Z,1.80
2022-08-08T00:06:07.959Z,2.25
2022-08-08T00:09:18.884Z,2.85
2022-08-08T00:12:07.118Z,1.80
2022-08-08T00:15:01.574Z,1.95
2022-08-08T00:18:03.524Z,0.90
2022-08-08T00:20:54.156Z,1.50
2022-08-08T00:23:47.863Z,0.90
2022-08-08T00:26:36.050Z,1.00
2022-08-08T00:29:17.328Z,1.17
2022-08-08T00:32:33.304Z,1.10
2022-08-08T00:35:21.739Z,0.70
2022-08-08T00:38:16.900Z,2.42
2022-08-08T00:41:54.425Z,1.02
2022-08-08T00:44:42.219Z,1.10
2022-08-08T00:48:01.453Z,1.52
2022-08-08T00:50:40.821Z,0.85
2022-08-08T00:53:43.669Z,0.88
2022-08-08T00:57:08.478Z,0.82
2022-08-08T01:00:05.014Z,1.05
2022-08-08T01:03:58.681Z,3.08
2022-08-08T01:05:59.253Z,2.55
2022-08-08T01:08:38.256Z,1.10
2022-08-08T01:11:26.402Z,1.52
2022-08-08T01:14:53.314Z,1.15
2022-08-08T01:17:53.204Z,1.00
2022-08-08T01:20:37.501Z,1.10
2022-08-08T01:24:05.677Z,2.90
2022-08-08T01:26:11.324Z,0.98
2022-08-08T01:29:05.633Z,1.13
2022-08-08T01:32:14.761Z,1.10
2022-08-08T01:35:12.439Z,0.95
2022-08-08T01:38:07.139Z,0.85
2022-08-08T01:41:00.994Z,1.30
2022-08-08T01:43:57.267Z,1.35
2022-08-08T01:48:14.277Z,1.00
2022-08-08T01:50:29.858Z,1.00
2022-08-08T01:55:26.924Z,0.80
2022-08-08T01:56:28.648Z,0.90
2022-08-08T01:59:07.843Z,1.02
2022-08-08T02:02:02.636Z,2.45
2022-08-08T02:04:45.329Z,1.33
2022-08-08T02:07:49.952Z,0.90
2022-08-08T02:11:00.710Z,1.23
2022-08-08T02:13:55.674Z,1.15
2022-08-08T02:16:52.569Z,1.60
2022-08-08T02:19:58.024Z,2.25
2022-08-08T02:22:52.480Z,1.00
2022-08-08T02:25:22.695Z,1.25
2022-08-08T02:28:13.840Z,1.38
2022-08-08T02:31:04.804Z,2.08
2022-08-08T02:34:32.749Z,0.90
2022-08-08T02:37:09.894Z,1.45
2022-08-08T02:39:58.221Z,0.75
2022-08-08T02:44:38.279Z,1.05
2022-08-08T02:46:19.805Z,2.13
2022-08-08T02:49:48.301Z,2.58
2022-08-08T02:52:51.676Z,1.15
2022-08-08T02:56:03.327Z,1.00
2022-08-08T02:59:26.152Z,3.30
2022-08-08T03:02:50.408Z,1.40
2022-08-08T03:05:45.466Z,1.65
2022-08-08T03:08:34.313Z,0.85
2022-08-08T03:15:57.191Z,0.90
2022-08-08T03:17:25.588Z,1.10
2022-08-08T03:20:07.995Z,1.40
2022-08-08T03:22:56.872Z,0.77
2022-08-08T03:25:36.178Z,1.10
2022-08-08T03:28:30.294Z,1.25
2022-08-08T03:31:22.202Z,1.77
2022-08-08T03:33:55.569Z,2.75
2022-08-08T03:36:31.369Z,2.65
2022-08-08T03:39:14.160Z,1.50
2022-08-08T03:42:12.024Z,1.30
2022-08-08T03:44:36.000Z,1.83
2022-08-08T03:47:19.850Z,3.95
2022-08-08T03:49:59.775Z,1.95
2022-08-08T03:52:35.620Z,3.22
2022-08-08T03:55:55.349Z,0.82
2022-08-08T03:58:35.445Z,1.27
2022-08-08T04:01:22.925Z,3.05
2022-08-08T04:03:57.878Z,2.22
2022-08-08T04:06:30.174Z,2.92
2022-08-08T04:09:08.841Z,1.30
2022-08-08T04:11:53.713Z,2.97
2022-08-08T04:14:34.781Z,1.85
2022-08-08T04:17:15.501Z,2.30
2022-08-08T04:19:50.377Z,1.58
2022-08-08T04:22:23.991Z,2.88
2022-08-08T04:24:53.764Z,1.50
2022-08-08T04:28:03.137Z,2.38
2022-08-08T04:30:18.568Z,1.10
2022-08-08T04:32:50.936Z,1.50
2022-08-08T04:35:22.760Z,1.75
2022-08-08T04:37:53.574Z,2.92
2022-08-08T04:40:26.574Z,1.13
2022-08-08T04:43:01.032Z,0.85
2022-08-08T04:45:40.189Z,2.38
2022-08-08T04:48:09.124Z,1.10
2022-08-08T04:50:40.195Z,2.67
2022-08-08T04:54:36.471Z,1.15
2022-08-08T04:56:02.169Z,2.28
2022-08-08T04:58:33.791Z,2.25
2022-08-08T05:01:06.037Z,2.42
2022-08-08T05:04:09.153Z,2.67
2022-08-08T05:06:33.931Z,1.10
2022-08-08T05:09:06.059Z,1.83
2022-08-08T05:11:39.274Z,1.40
2022-08-08T05:14:12.153Z,2.50
2022-08-08T05:16:55.526Z,2.15
2022-08-08T05:20:04.160Z,2.00
2022-08-08T05:22:29.663Z,2.13
2022-08-08T05:24:58.955Z,1.30
2022-08-08T05:27:26.535Z,2.17
2022-08-08T05:30:01.016Z,1.90
2022-08-08T05:32:36.609Z,2.10
2022-08-08T05:35:07.358Z,1.20
2022-08-08T05:37:52.800Z,1.40
2022-08-08T05:40:28.172Z,1.70
2022-08-08T05:43:38.179Z,2.40
2022-08-08T05:46:03.418Z,2.55
2022-08-08T05:48:36.044Z,2.47
2022-08-08T05:51:14.661Z,1.63
2022-08-08T05:54:25.241Z,1.30
2022-08-08T05:56:42.486Z,1.65
2022-08-08T05:59:59.642Z,2.20
2022-08-08T06:02:43.645Z,1.50
2022-08-08T06:05:35.026Z,1.20
2022-08-08T06:08:10.343Z,1.92
2022-08-08T06:10:57.160Z,1.35
2022-08-08T06:13:29.947Z,2.55
2022-08-08T06:16:04.684Z,2.22
2022-08-08T06:19:00.393Z,2.85
2022-08-08T06:21:51.470Z,2.75
2022-08-08T06:24:30.581Z,2.10
2022-08-08T06:27:05.912Z,4.53
2022-08-08T06:30:00.365Z,1.67
2022-08-08T06:32:50.202Z,2.17
2022-08-08T06:36:04.693Z,1.38
2022-08-08T06:38:18.809Z,1.00
2022-08-08T06:40:54.449Z,1.88
2022-08-08T06:43:34.029Z,0.97
2022-08-08T06:46:14.470Z,3.25
2022-08-08T06:48:47.600Z,2.75
2022-08-08T06:51:16.529Z,2.30
2022-08-08T06:53:51.049Z,3.33
2022-08-08T06:56:33.368Z,4.28
2022-08-08T06:59:09.857Z,3.05
2022-08-08T07:02:27.018Z,2.47
2022-08-08T07:04:52.500Z,2.45
2022-08-08T07:07:39.662Z,2.97
2022-08-08T07:10:12.689Z,2.28
2022-08-08T07:12:55.635Z,1.83
2022-08-08T07:16:04.515Z,1.95
2022-08-08T07:18:52.297Z,2.38
2022-08-08T07:21:31.196Z,2.55
2022-08-08T07:24:12.785Z,1.13
2022-08-08T07:26:55.125Z,2.58
2022-08-08T07:30:02.316Z,2.10
2022-08-08T07:32:15.676Z,2.50
2022-08-08T07:35:00.501Z,4.32
2022-08-08T07:37:55.806Z,1.25
2022-08-08T07:40:29.624Z,1.00
2022-08-08T07:43:04.007Z,1.17
2022-08-08T07:46:05.401Z,1.77
2022-08-08T07:48:29.701Z,0.93
2022-08-08T07:51:01.335Z,1.50
2022-08-08T07:54:02.288Z,1.05
2022-08-08T07:56:44.364Z,2.08
2022-08-08T07:59:14.960Z,2.88
2022-08-08T08:02:35.627Z,3.20
2022-08-08T08:04:52.152Z,2.03
2022-08-08T08:07:32.092Z,0.77
2022-08-08T08:10:07.537Z,1.85
2022-08-08T08:12:53.542Z,1.53
2022-08-08T08:15:26.526Z,2.28
2022-08-08T08:18:04.580Z,2.20
2022-08-08T08:20:34.873Z,2.30
2022-08-08T08:23:06.090Z,2.45
2022-08-08T08:25:42.236Z,1.80
2022-08-08T08:28:21.139Z,4.70
2022-08-08T08:30:54.120Z,2.30
2022-08-08T08:33:25.075Z,2.17
2022-08-08T08:36:18.413Z,2.67
2022-08-08T08:38:49.315Z,0.77
2022-08-08T08:41:22.378Z,2.95
2022-08-08T08:44:13.511Z,4.65
2022-08-08T08:46:47.284Z,1.35
2022-08-08T08:49:16.674Z,5.18
2022-08-08T08:51:51.753Z,1.27
2022-08-08T08:56:55.697Z,1.27
2022-08-08T08:59:58.662Z,2.58
2022-08-08T09:02:21.828Z,1.40
2022-08-08T09:04:57.382Z,3.42
2022-08-08T09:07:39.327Z,1.70
2022-08-08T09:10:17.488Z,1.90
2022-08-08T09:12:50.461Z,2.42
2022-08-08T09:15:41.435Z,1.50
2022-08-08T09:18:08.176Z,2.60
2022-08-08T09:22:01.964Z,2.70
2022-08-08T09:23:33.523Z,1.52
2022-08-08T09:26:13.844Z,2.33
2022-08-08T09:28:44.107Z,3.83
2022-08-08T09:31:56.815Z,2.30
2022-08-08T09:34:35.078Z,2.67
2022-08-08T09:37:46.298Z,0.90
2022-08-08T09:40:11.357Z,1.85
2022-08-08T09:42:51.156Z,1.48
2022-08-08T09:46:01.214Z,1.08
2022-08-08T09:48:29.025Z,3.22
2022-08-08T09:51:05.223Z,1.38
2022-08-08T09:54:01.132Z,1.95
2022-08-08T09:56:41.377Z,1.10
2022-08-08T09:59:50.700Z,1.25
2022-08-08T10:02:19.336Z,1.40
2022-08-08T10:04:48.585Z,1.67
2022-08-08T10:07:20.391Z,1.85
2022-08-08T10:10:00.346Z,2.42
2022-08-08T10:12:52.896Z,1.52
2022-08-08T10:15:27.572Z,1.67
2022-08-08T10:18:11.795Z,1.67
2022-08-08T10:20:57.507Z,1.92
2022-08-08T10:23:55.563Z,1.58
2022-08-08T10:26:52.340Z,2.35
2022-08-08T10:29:57.106Z,1.40
2022-08-08T10:32:40.310Z,2.20
2022-08-08T10:36:03.921Z,2.05
2022-08-08T10:38:08.507Z,2.92
2022-08-08T10:40:38.836Z,2.72
2022-08-08T10:43:09.858Z,4.30
2022-08-08T10:45:56.738Z,1.98
2022-08-08T10:48:38.840Z,3.15
2022-08-08T10:51:31.133Z,2.45
2022-08-08T10:54:08.494Z,2.17
2022-08-08T10:56:43.072Z,1.83
2022-08-08T10:59:14.260Z,2.08
2022-08-08T11:01:49.603Z,2.38
2022-08-08T11:04:38.668Z,1.65
2022-08-08T11:07:07.711Z,3.63
2022-08-08T11:09:48.621Z,2.97
2022-08-08T11:12:16.256Z,2.67
2022-08-08T11:15:02.734Z,3.03
2022-08-08T11:20:27.753Z,3.38
2022-08-08T11:22:57.417Z,2.63
2022-08-08T11:25:52.325Z,2.67
2022-08-08T11:28:29.649Z,2.13
2022-08-08T11:31:00.848Z,3.50
2022-08-08T11:33:52.668Z,2.78
2022-08-08T11:36:29.006Z,2.15
2022-08-08T11:38:57.734Z,2.53
2022-08-08T11:41:28.018Z,2.85
2022-08-08T11:44:01.217Z,3.35
2022-08-08T11:46:31.729Z,3.22
2022-08-08T11:49:08.646Z,5.18
2022-08-08T11:51:39.854Z,5.93
2022-08-08T11:54:31.411Z,2.40
2022-08-08T11:57:36.022Z,3.90
2022-08-08T12:00:09.904Z,3.60
2022-08-08T12:02:51.043Z,2.00
2022-08-08T12:05:22.732Z,3.40
2022-08-08T12:07:53.426Z,3.10
2022-08-08T12:10:24.670Z,4.45
2022-08-08T12:13:03.098Z,3.90
2022-08-08T12:15:42.832Z,4.22
2022-08-08T12:18:21.358Z,5.28
2022-08-08T12:20:54.810Z,2.45
2022-08-08T12:23:42.634Z,4.15
2022-08-08T12:26:27.925Z,7.32
2022-08-08T12:29:25.955Z,4.57
2022-08-08T12:32:13.501Z,2.95
2022-08-08T12:35:13.425Z,3.08
2022-08-08T12:38:01.082Z,3.13
2022-08-08T12:40:54.162Z,4.63
2022-08-08T12:43:47.922Z,3.95
2022-08-08T12:46:25.424Z,5.07
2022-08-08T12:49:22.006Z,3.22
2022-08-08T12:51:49.774Z,3.22
2022-08-08T12:54:33.307Z,3.83
2022-08-08T12:57:20.842Z,4.43
2022-08-08T13:00:04.171Z,7.57
2022-08-08T13:02:42.093Z,5.05
2022-08-08T13:05:26.203Z,2.33
2022-08-08T13:08:20.465Z,2.92
2022-08-08T13:10:56.893Z,4.35
2022-08-08T13:13:37.067Z,5.07
2022-08-08T13:16:25.488Z,5.55
2022-08-08T13:19:01.719Z,4.32
2022-08-08T13:21:53.647Z,3.85
2022-08-08T13:24:41.966Z,3.72
2022-08-08T13:27:21.842Z,6.70
2022-08-08T13:29:56.150Z,3.15
2022-08-08T13:32:28.387Z,7.07
2022-08-08T13:34:58.971Z,4.88
2022-08-08T13:38:04.893Z,6.93
2022-08-08T13:40:26.584Z,5.80
2022-08-08T13:42:56.485Z,5.82
2022-08-08T13:45:26.323Z,6.35
2022-08-08T13:48:02.066Z,5.85
2022-08-08T13:50:49.272Z,4.32
2022-08-08T13:53:40.660Z,5.10
2022-08-08T13:56:44.749Z,5.32
2022-08-08T13:59:32.903Z,5.93
2022-08-08T14:02:07.517Z,5.97
2022-08-08T14:04:38.661Z,1.88
2022-08-08T14:07:29.952Z,3.33
2022-08-08T14:10:16.980Z,3.90
2022-08-08T14:12:46.808Z,5.13
2022-08-08T14:15:39.681Z,5.38
2022-08-08T14:18:34.343Z,4.88
2022-08-08T14:21:08.233Z,7.18
2022-08-08T14:24:07.573Z,5.18
2022-08-08T14:26:33.151Z,7.10
2022-08-08T14:29:01.670Z,7.60
2022-08-08T14:32:05.891Z,8.82
2022-08-08T14:34:27.700Z,7.80
2022-08-08T14:36:57.860Z,6.40
2022-08-08T14:39:49.240Z,9.35
2022-08-08T14:42:16.759Z,5.22
2022-08-08T14:45:00.345Z,6.47
2022-08-08T14:47:28.174Z,6.05
2022-08-08T14:50:16.119Z,3.05
2022-08-08T14:53:04.254Z,5.68
2022-08-08T14:55:41.873Z,6.38
2022-08-08T14:58:16.008Z,2.20
2022-08-08T15:00:49.384Z,2.33
2022-08-08T15:03:18.338Z,3.97
2022-08-08T15:05:54.354Z,2.15
2022-08-08T15:08:34.653Z,2.80
2022-08-08T15:11:09.277Z,4.43
2022-08-08T15:14:01.431Z,5.38
2022-08-08T15:16:29.026Z,5.43
2022-08-08T15:18:56.601Z,4.88
2022-08-08T15:21:30.051Z,4.07
2022-08-08T15:23:58.591Z,5.75
2022-08-08T15:26:28.757Z,3.72
2022-08-08T15:28:57.489Z,4.90
2022-08-08T15:31:26.127Z,4.78
2022-08-08T15:34:18.487Z,5.40
2022-08-08T15:39:38.184Z,4.30
2022-08-08T15:42:10.569Z,3.45
2022-08-08T15:44:42.155Z,5.43
2022-08-08T15:47:15.857Z,3.42
2022-08-08T15:49:48.602Z,6.47
2022-08-08T15:52:21.622Z,4.45
2022-08-08T15:54:51.863Z,5.55
2022-08-08T15:57:22.313Z,5.85
2022-08-08T16:00:25.446Z,3.72
2022-08-08T16:02:50.292Z,4.72
2022-08-08T16:05:20.668Z,6.40
2022-08-08T16:07:52.625Z,3.45
2022-08-08T16:13:05.369Z,4.53
2022-08-08T16:13:45.231Z,3.25
2022-08-08T16:16:03.246Z,6.80
2022-08-08T16:18:37.259Z,3.97
2022-08-08T16:21:20.519Z,4.85
2022-08-08T16:23:55.319Z,5.32
2022-08-08T16:26:33.691Z,3.38
2022-08-08T16:29:09.352Z,5.07
2022-08-08T16:31:42.124Z,4.90
2022-08-08T16:34:20.929Z,7.30
2022-08-08T16:36:50.469Z,9.25
2022-08-08T16:40:01.520Z,6.03
2022-08-08T16:42:13.882Z,8.07
2022-08-08T16:44:55.201Z,4.43
2022-08-08T16:47:40.367Z,5.30
2022-08-08T16:50:16.479Z,7.78
2022-08-08T16:55:04.474Z,2.67
2022-08-08T16:55:55.472Z,5.35
2022-08-08T16:58:32.506Z,4.32
2022-08-08T17:01:12.316Z,3.55
2022-08-08T17:04:01.210Z,5.72
2022-08-08T17:06:37.275Z,6.13
2022-08-08T17:09:15.029Z,3.33
2022-08-08T17:11:49.034Z,5.13
2022-08-08T17:14:27.139Z,4.82
2022-08-08T17:17:23.185Z,2.88
2022-08-08T17:19:55.538Z,3.92
2022-08-08T17:22:38.886Z,5.95
2022-08-08T17:25:08.494Z,3.72
2022-08-08T17:27:44.486Z,4.93
2022-08-08T17:30:27.593Z,2.65
2022-08-08T17:34:37.026Z,6.63
2022-08-08T17:35:56.037Z,6.13
2022-08-08T17:38:32.441Z,7.50
2022-08-08T17:41:00.372Z,4.90
2022-08-08T17:43:29.875Z,7.63
2022-08-08T17:46:39.999Z,6.15
2022-08-08T17:49:10.710Z,2.92
2022-08-08T17:51:39.527Z,3.35
2022-08-08T17:54:22.062Z,3.13
2022-08-08T17:56:50.428Z,3.60
2022-08-08T17:59:23.268Z,3.38
2022-08-08T18:02:03.150Z,4.32
2022-08-08T18:04:33.674Z,2.83
2022-08-08T18:07:06.228Z,5.43
2022-08-08T18:09:53.803Z,4.50
2022-08-08T18:12:21.378Z,6.35
2022-08-08T18:14:52.774Z,4.35
2022-08-08T18:18:05.299Z,6.95
2022-08-08T18:20:43.849Z,5.03
2022-08-08T18:23:01.846Z,3.45
2022-08-08T18:25:37.469Z,8.98
2022-08-08T18:28:05.844Z,5.80
2022-08-08T18:30:34.656Z,4.60
2022-08-08T18:33:03.991Z,5.85
2022-08-08T18:35:41.506Z,3.78
2022-08-08T18:38:16.722Z,4.95
2022-08-08T18:40:45.717Z,4.38
2022-08-08T18:43:16.432Z,5.32
2022-08-08T18:46:52.665Z,3.65
2022-08-08T18:48:32.514Z,2.22
2022-08-08T18:51:00.304Z,4.88
2022-08-08T18:54:02.968Z,4.78
2022-08-08T18:56:29.056Z,2.58
2022-08-08T18:58:57.120Z,7.05
2022-08-08T19:02:27.995Z,4.30
2022-08-08T19:04:12.896Z,4.28
2022-08-08T19:06:40.692Z,2.83
2022-08-08T19:09:15.102Z,3.00
2022-08-08T19:11:46.268Z,5.35
2022-08-08T19:14:20.544Z,5.80
2022-08-08T19:16:48.886Z,3.45
2022-08-08T19:19:17.885Z,4.57
2022-08-08T19:21:49.849Z,4.55
2022-08-08T19:24:43.197Z,6.43
2022-08-08T19:27:07.098Z,6.45
2022-08-08T19:29:42.174Z,4.53
2022-08-08T19:32:13.133Z,2.85
2022-08-08T19:34:49.279Z,6.75
2022-08-08T19:37:41.795Z,3.83
2022-08-08T19:40:14.645Z,5.07
2022-08-08T19:42:47.981Z,4.22
2022-08-08T19:45:58.478Z,3.70
2022-08-08T19:48:28.258Z,2.78
2022-08-08T19:50:55.906Z,2.88
2022-08-08T19:53:52.788Z,5.25
2022-08-08T19:56:12.141Z,4.25
2022-08-08T19:58:40.583Z,3.20
2022-08-08T20:01:18.285Z,3.03
2022-08-08T20:04:01.103Z,4.13
2022-08-08T20:06:30.688Z,5.95
2022-08-08T20:08:59.718Z,1.85
2022-08-08T20:11:32.187Z,2.88
2022-08-08T20:14:32.497Z,3.90
2022-08-08T20:16:47.338Z,3.72
2022-08-08T20:19:20.616Z,5.72
2022-08-08T20:21:48.911Z,5.18
2022-08-08T20:24:18.619Z,6.55
2022-08-08T20:26:49.433Z,3.92
2022-08-08T20:29:18.190Z,5.38
2022-08-08T20:32:08.015Z,4.55
2022-08-08T20:34:33.571Z,5.70
2022-08-08T20:37:04.032Z,6.32
2022-08-08T20:39:41.346Z,4.65
2022-08-08T20:42:28.206Z,4.80
2022-08-08T20:44:57.951Z,3.25
2022-08-08T20:47:26.798Z,2.90
2022-08-08T20:50:05.102Z,4.70
2022-08-08T20:52:33.151Z,3.47
2022-08-08T20:55:01.353Z,4.28
2022-08-08T20:57:35.410Z,4.43
2022-08-08T21:00:12.223Z,5.72
2022-08-08T21:02:39.947Z,5.07
2022-08-08T21:05:11.744Z,5.07
2022-08-08T21:08:07.847Z,7.28
2022-08-08T21:10:28.721Z,3.92
2022-08-08T21:12:57.548Z,4.75
2022-08-08T21:16:03.876Z,1.90
2022-08-08T21:18:13.744Z,2.97
2022-08-08T21:20:42.392Z,3.03
2022-08-08T21:23:17.883Z,4.25
2022-08-08T21:25:48.773Z,3.53
2022-08-08T21:28:33.598Z,2.78
2022-08-08T21:31:22.164Z,2.88
2022-08-08T21:33:52.237Z,5.95
2022-08-08T21:36:28.462Z,4.13
2022-08-08T21:38:57.775Z,2.10
2022-08-08T21:41:38.594Z,3.05
2022-08-08T21:44:14.373Z,2.33
2022-08-08T21:48:07.779Z,2.92
2022-08-08T21:49:30.771Z,3.03
2022-08-08T21:54:33.262Z,2.92
2022-08-08T21:54:55.012Z,2.10
2022-08-08T21:57:41.977Z,3.95
2022-08-08T22:00:14.232Z,2.03
2022-08-08T22:02:44.145Z,2.42
2022-08-08T22:05:14.936Z,5.65
2022-08-08T22:07:48.320Z,4.50
2022-08-08T22:10:32.063Z,4.10
2022-08-08T22:13:18.578Z,4.32
2022-08-08T22:15:59.108Z,2.95
2022-08-08T22:18:33.353Z,5.28
2022-08-08T22:21:14.172Z,5.25
2022-08-08T22:23:51.027Z,5.72
2022-08-08T22:26:29.949Z,4.95
2022-08-08T22:29:13.522Z,3.38
2022-08-08T22:32:01.765Z,6.72
2022-08-08T22:34:39.519Z,3.00
2022-08-08T22:37:14.849Z,3.53
2022-08-08T22:40:00.974Z,3.45
2022-08-08T22:42:31.690Z,6.72
2022-08-08T22:45:03.279Z,3.10
2022-08-08T22:47:34.218Z,2.33
2022-08-08T22:50:26.893Z,2.63
2022-08-08T22:54:30.320Z,2.55
2022-08-08T22:55:57.746Z,3.78
2022-08-08T22:58:28.832Z,3.53
2022-08-08T23:01:00.109Z,8.63
2022-08-08T23:03:53.847Z,2.67
2022-08-08T23:06:17.072Z,3.95
2022-08-08T23:08:55.542Z,0.98
2022-08-08T23:12:17.952Z,1.15
2022-08-08T23:14:20.600Z,2.60
2022-08-08T23:16:54.793Z,2.63
2022-08-08T23:19:30.987Z,1.27
2022-08-08T23:22:05.077Z,1.38
2022-08-08T23:24:41.116Z,1.60
2022-08-08T23:27:11.253Z,1.60
2022-08-08T23:29:59.073Z,3.88
2022-08-08T23:32:26.701Z,2.25
2022-08-08T23:34:59.000Z,2.47
2022-08-08T23:38:00.747Z,2.03
2022-08-08T23:40:15.525Z,2.47
2022-08-08T23:42:45.281Z,2.38
2022-08-08T23:45:14.022Z,2.90
2022-08-08T23:49:04.326Z,1.98
2022-08-08T23:50:31.426Z,2.22
2022-08-08T23:53:05.330Z,1.40
2022-08-08T23:55:42.114Z,1.55
2022-08-08T23:58:32.043Z,1.60
